createdAt,value
2017-10-22T00:01:26.911Z,100426.28
2017-10-22T00:03:54.430Z,100434.69
2017-10-22T00:06:21.806Z,100423.95
2017-10-22T00:08:49.235Z,100420.94
2017-10-22T00:11:16.643Z,100419.00
2017-10-22T00:13:44.015Z,100417.28
2017-10-22T00:16:11.495Z,100417.20
2017-10-22T00:18:38.878Z,100421.92
2017-10-22T00:21:06.275Z,100423.97
2017-10-22T00:23:33.664Z,100421.33
2017-10-22T00:26:01.055Z,100424.59
2017-10-22T00:28:28.475Z,100419.29
2017-10-22T00:30:55.862Z,100414.38
2017-10-22T00:33:23.258Z,100410.63
2017-10-22T00:35:50.658Z,100413.97
2017-10-22T00:38:18.044Z,100405.77
2017-10-22T00:40:45.439Z,100408.34
2017-10-22T00:43:12.822Z,100400.92
2017-10-22T00:45:40.227Z,100406.58
2017-10-22T00:48:07.602Z,100397.47
2017-10-22T00:50:35.008Z,100396.41
2017-10-22T00:53:02.392Z,100400.77
2017-10-22T00:55:29.792Z,100393.01
2017-10-22T00:57:57.189Z,100392.31
2017-10-22T01:00:24.599Z,100397.20
2017-10-22T01:02:52.004Z,100388.68
2017-10-22T01:05:19.392Z,100387.45
2017-10-22T01:07:46.796Z,100379.98
2017-10-22T01:10:14.192Z,100385.09
2017-10-22T01:12:41.589Z,100382.12
2017-10-22T01:15:08.985Z,100381.59
2017-10-22T01:17:36.380Z,100378.07
2017-10-22T01:20:03.769Z,100373.58
2017-10-22T01:22:31.168Z,100381.97
2017-10-22T01:24:58.553Z,100376.56
2017-10-22T01:27:25.955Z,100375.33
2017-10-22T01:29:53.338Z,100379.63
2017-10-22T01:32:20.739Z,100378.92
2017-10-22T01:34:48.136Z,100379.95
2017-10-22T01:37:15.616Z,100384.36
2017-10-22T01:39:43.010Z,100384.52
2017-10-22T01:42:10.400Z,100378.84
2017-10-22T01:44:37.799Z,100377.67
2017-10-22T01:47:05.215Z,100373.89
2017-10-22T01:49:32.612Z,100375.25
2017-10-22T01:52:00.014Z,100375.35
2017-10-22T01:54:27.408Z,100371.26
2017-10-22T01:56:54.804Z,100369.58
2017-10-22T01:59:22.193Z,100360.48
2017-10-22T02:01:49.602Z,100370.48
2017-10-22T02:04:16.998Z,100363.00
2017-10-22T02:06:44.454Z,100365.66
2017-10-22T02:09:11.935Z,100362.77
2017-10-22T02:11:39.328Z,100358.29
2017-10-22T02:14:06.728Z,100354.91
2017-10-22T02:16:34.146Z,100350.73
2017-10-22T02:19:01.558Z,100354.66
2017-10-22T02:21:28.950Z,100352.27
2017-10-22T02:23:56.379Z,100345.55
2017-10-22T02:26:23.767Z,100350.97
2017-10-22T02:28:51.171Z,100347.33
2017-10-22T02:31:18.555Z,100344.70
2017-10-22T02:33:45.957Z,100340.25
2017-10-22T02:36:13.345Z,100346.09
2017-10-22T02:38:40.744Z,100348.40
2017-10-22T02:41:08.154Z,100347.42
2017-10-22T02:43:35.547Z,100348.00
2017-10-22T02:46:02.938Z,100343.44
2017-10-22T02:48:30.331Z,100341.22
2017-10-22T02:50:57.720Z,100350.58
2017-10-22T02:53:25.106Z,100349.47
2017-10-22T02:55:52.504Z,100351.43
2017-10-22T02:58:19.897Z,100349.34
2017-10-22T03:00:47.294Z,100350.48
2017-10-22T03:03:14.689Z,100346.41
2017-10-22T03:05:42.082Z,100339.30
2017-10-22T03:08:09.473Z,100339.20
2017-10-22T03:10:36.872Z,100328.99
2017-10-22T03:13:04.256Z,100338.48
2017-10-22T03:15:32.601Z,100326.20
2017-10-22T03:18:00.012Z,100330.89
2017-10-22T03:20:27.438Z,100325.41
2017-10-22T03:22:54.834Z,100325.78
2017-10-22T03:25:22.226Z,100326.83
2017-10-22T03:27:49.605Z,100320.59
2017-10-22T03:30:17.084Z,100312.64
2017-10-22T03:32:44.472Z,100322.29
2017-10-22T03:35:11.876Z,100314.14
2017-10-22T03:37:39.351Z,100313.52
2017-10-22T03:40:06.752Z,100308.82
2017-10-22T03:42:34.156Z,100304.16
2017-10-22T03:45:01.555Z,100306.10
2017-10-22T03:47:28.949Z,100308.23
2017-10-22T03:49:56.345Z,100304.95
2017-10-22T03:52:23.731Z,100310.45
2017-10-22T03:54:51.143Z,100307.44
2017-10-22T03:57:18.532Z,100308.59
2017-10-22T03:59:45.923Z,100320.49
2017-10-22T04:02:13.331Z,100316.70
2017-10-22T04:04:40.731Z,100318.25
2017-10-22T04:07:08.211Z,100319.17
2017-10-22T04:09:35.603Z,100323.30
2017-10-22T04:12:03.014Z,100317.80
2017-10-22T04:14:30.398Z,100320.39
2017-10-22T04:16:57.799Z,100327.67
2017-10-22T04:19:25.297Z,100317.05
2017-10-22T04:21:52.692Z,100322.72
2017-10-22T04:24:20.085Z,100325.42
2017-10-22T04:26:47.578Z,100319.22
2017-10-22T04:29:14.964Z,100317.05
2017-10-22T04:31:42.354Z,100314.67
2017-10-22T04:34:09.746Z,100319.94
2017-10-22T04:36:37.147Z,100312.58
2017-10-22T04:39:04.538Z,100312.80
2017-10-22T04:41:31.946Z,100305.63
2017-10-22T04:43:59.364Z,100310.68
2017-10-22T04:46:26.760Z,100304.32
2017-10-22T04:48:54.150Z,100305.27
2017-10-22T04:51:21.543Z,100296.73
2017-10-22T04:53:48.939Z,100293.41
2017-10-22T04:56:16.336Z,100290.59
2017-10-22T04:58:43.727Z,100288.73
2017-10-22T05:01:11.230Z,100286.45
2017-10-22T05:03:38.622Z,100289.03
2017-10-22T05:06:06.046Z,100286.09
2017-10-22T05:08:33.434Z,100286.23
2017-10-22T05:11:00.876Z,100286.98
2017-10-22T05:13:28.259Z,100289.48
2017-10-22T05:15:55.671Z,100279.64
2017-10-22T05:18:23.125Z,100279.12
2017-10-22T05:20:50.511Z,100276.30
2017-10-22T05:23:17.903Z,100274.17
2017-10-22T05:25:45.296Z,100272.64
2017-10-22T05:28:12.691Z,100280.64
2017-10-22T05:30:40.071Z,100277.45
2017-10-22T05:33:07.472Z,100274.17
2017-10-22T05:35:34.854Z,100274.89
2017-10-22T05:38:02.619Z,100279.40
2017-10-22T05:40:30.028Z,100279.70
2017-10-22T05:42:57.419Z,100278.77
2017-10-22T05:45:24.816Z,100280.05
2017-10-22T05:47:52.206Z,100279.09
2017-10-22T05:50:19.605Z,100285.77
2017-10-22T05:52:46.987Z,100282.73
2017-10-22T05:55:14.427Z,100282.66
2017-10-22T05:57:41.840Z,100286.50
2017-10-22T06:00:09.227Z,100286.23
2017-10-22T06:02:36.771Z,100279.92
2017-10-22T06:05:04.167Z,100286.25
2017-10-22T06:07:31.603Z,100276.97
2017-10-22T06:09:58.994Z,100276.55
2017-10-22T06:12:26.391Z,100271.56
2017-10-22T06:14:53.791Z,100269.84
2017-10-22T06:17:21.218Z,100269.06
2017-10-22T06:19:48.708Z,100263.20
2017-10-22T06:22:16.110Z,100264.00
2017-10-22T06:24:43.502Z,100269.77
2017-10-22T06:27:10.903Z,100268.89
2017-10-22T06:29:38.296Z,100268.44
2017-10-22T06:32:05.678Z,100264.85
2017-10-22T06:34:33.075Z,100266.73
2017-10-22T06:37:00.719Z,100268.10
2017-10-22T06:39:28.167Z,100267.22
2017-10-22T06:41:55.562Z,100268.70
2017-10-22T06:44:22.962Z,100262.77
2017-10-22T06:46:50.357Z,100269.95
2017-10-22T06:49:17.959Z,100263.55
2017-10-22T06:51:45.336Z,100269.60
2017-10-22T06:54:12.727Z,100264.84
2017-10-22T06:56:40.129Z,100269.27
2017-10-22T06:59:07.554Z,100264.75
2017-10-22T07:01:34.959Z,100259.00
2017-10-22T07:04:02.347Z,100266.64
2017-10-22T07:06:29.746Z,100261.75
2017-10-22T07:08:57.134Z,100259.70
2017-10-22T07:11:24.526Z,100253.81
2017-10-22T07:13:53.896Z,100253.52
2017-10-22T07:16:21.431Z,100254.11
2017-10-22T07:18:48.823Z,100248.62
2017-10-22T07:21:16.229Z,100245.91
2017-10-22T07:23:43.611Z,100246.67
2017-10-22T07:26:11.011Z,100244.61
2017-10-22T07:28:38.394Z,100251.90
2017-10-22T07:31:05.799Z,100247.82
2017-10-22T07:33:33.182Z,100243.68
2017-10-22T07:36:00.590Z,100243.09
2017-10-22T07:38:27.986Z,100234.22
2017-10-22T07:40:55.383Z,100243.05
2017-10-22T07:43:22.773Z,100240.32
2017-10-22T07:45:50.183Z,100241.00
2017-10-22T07:48:17.579Z,100233.27
2017-10-22T07:50:44.966Z,100229.41
2017-10-22T07:53:12.360Z,100233.06
2017-10-22T07:55:39.834Z,100231.73
2017-10-22T07:58:07.224Z,100231.49
2017-10-22T08:00:34.614Z,100227.04
2017-10-22T08:03:02.018Z,100235.11
2017-10-22T08:05:29.407Z,100226.63
2017-10-22T08:07:56.807Z,100228.62
2017-10-22T08:10:24.207Z,100229.65
2017-10-22T08:12:51.597Z,100224.41
2017-10-22T08:15:19.000Z,100216.87
2017-10-22T08:17:46.422Z,100216.49
2017-10-22T08:20:13.831Z,100225.07
2017-10-22T08:22:41.227Z,100222.56
2017-10-22T08:25:08.627Z,100220.21
2017-10-22T08:27:36.019Z,100222.86
2017-10-22T08:30:03.947Z,100218.14
2017-10-22T08:32:31.342Z,100216.98
2017-10-22T08:34:58.739Z,100219.64
2017-10-22T08:37:26.130Z,100219.48
2017-10-22T08:39:53.545Z,100224.38
2017-10-22T08:42:21.003Z,100221.73
2017-10-22T08:44:48.417Z,100225.84
2017-10-22T08:47:15.802Z,100228.19
2017-10-22T08:49:43.207Z,100227.95
2017-10-22T08:52:10.587Z,100227.55
2017-10-22T08:54:37.975Z,100219.64
2017-10-22T08:57:05.366Z,100231.28
2017-10-22T08:59:32.759Z,100226.16
2017-10-22T09:02:00.239Z,100229.58
2017-10-22T09:04:27.635Z,100230.27
2017-10-22T09:06:55.028Z,100235.44
2017-10-22T09:09:22.434Z,100234.16
2017-10-22T09:11:49.831Z,100230.84
2017-10-22T09:14:17.227Z,100235.87
2017-10-22T09:16:44.610Z,100236.90
